Time;durP1;ratioP1;P1;durP2;ratioP2;P2;SDS_P1;SDS_P2;PMS_P1;PMS_P2;Temp;Humidity;BMP_temperature;BMP_pressure;BME280_temperature;BME280_humidity;BME280_pressure;Samples;Min_cycle;Max_cycle;Signal;HPM_P1;HPM_P2
2023/09/28 00:02:57;;;;;;;1.98;1.50;;;;;;;;;;5069955;28;20047;-72
2023/09/28 00:05:23;;;;;;;4.85;1.65;;;;;;;;;;5070415;28;20028;-72
2023/09/28 00:07:52;;;;;;;2.50;1.60;;;;;;;;;;5074307;28;20087;-71
2023/09/28 00:10:18;;;;;;;4.72;1.85;;;;;;;;;;5078926;28;20107;-69
2023/09/28 00:12:47;;;;;;;2.58;1.80;;;;;;;;;;5075069;28;20474;-70
2023/09/28 00:15:13;;;;;;;4.68;1.80;;;;;;;;;;5063235;28;20028;-71
2023/09/28 00:17:39;;;;;;;2.65;1.65;;;;;;;;;;5089416;28;20107;-72
2023/09/28 00:20:13;;;;;;;2.83;1.80;;;;;;;;;;5071149;28;20028;-71
2023/09/28 00:22:42;;;;;;;2.70;1.75;;;;;;;;;;5071246;28;20469;-70
2023/09/28 00:25:11;;;;;;;3.47;1.70;;;;;;;;;;5071006;28;20489;-71
2023/09/28 00:27:45;;;;;;;3.13;1.60;;;;;;;;;;5071461;28;20115;-73
2023/09/28 00:30:14;;;;;;;3.97;1.60;;;;;;;;;;5078609;28;20040;-71
2023/09/28 00:32:42;;;;;;;2.80;1.70;;;;;;;;;;5070765;28;20108;-71
2023/09/28 00:35:08;;;;;;;3.30;1.75;;;;;;;;;;5071331;28;20028;-72
2023/09/28 00:37:33;;;;;;;3.38;1.80;;;;;;;;;;5063604;28;20134;-71
2023/09/28 00:39:59;;;;;;;3.10;1.80;;;;;;;;;;5071246;28;20036;-71
2023/09/28 00:42:28;;;;;;;2.42;1.70;;;;;;;;;;5068358;28;20487;-70
2023/09/28 00:44:54;;;;;;;5.13;1.83;;;;;;;;;;5070078;28;20063;-71
2023/09/28 00:47:19;;;;;;;3.30;1.67;;;;;;;;;;5077537;28;20051;-70
2023/09/28 00:49:46;;;;;;;2.10;1.65;;;;;;;;;;5074704;28;20508;-71
2023/09/28 00:52:16;;;;;;;2.08;1.63;;;;;;;;;;5072419;28;20103;-71
2023/09/28 00:54:48;;;;;;;3.05;2.15;;;;;;;;;;5072288;28;20432;-70
2023/09/28 00:57:15;;;;;;;3.28;2.38;;;;;;;;;;5067869;28;20610;-70
2023/09/28 00:59:41;;;;;;;3.10;2.20;;;;;;;;;;5077870;28;20468;-70
2023/09/28 01:02:08;;;;;;;3.75;2.40;;;;;;;;;;5067920;28;20055;-71
2023/09/28 01:04:36;;;;;;;4.57;2.63;;;;;;;;;;5083814;28;20470;-70
2023/09/28 01:07:04;;;;;;;4.43;2.38;;;;;;;;;;5067848;28;20036;-70
2023/09/28 01:09:30;;;;;;;4.75;2.65;;;;;;;;;;5063063;28;20382;-71
2023/09/28 01:11:56;;;;;;;4.30;2.40;;;;;;;;;;5079697;28;20032;-72
2023/09/28 01:14:22;;;;;;;6.43;2.45;;;;;;;;;;5067298;28;20045;-70
2023/09/28 01:16:48;;;;;;;4.30;2.80;;;;;;;;;;5067188;28;20047;-70
2023/09/28 01:19:14;;;;;;;4.50;3.33;;;;;;;;;;5073573;28;20016;-70
2023/09/28 01:21:40;;;;;;;6.50;3.58;;;;;;;;;;5074727;28;20044;-70
2023/09/28 01:24:06;;;;;;;5.90;3.45;;;;;;;;;;5087709;28;20481;-70
2023/09/28 01:26:32;;;;;;;4.97;2.70;;;;;;;;;;5078226;28;20119;-70
2023/09/28 01:28:59;;;;;;;3.97;2.53;;;;;;;;;;5053834;28;20474;-70
2023/09/28 01:31:24;;;;;;;6.47;2.80;;;;;;;;;;5072105;28;20040;-70
2023/09/28 01:33:50;;;;;;;3.83;2.50;;;;;;;;;;5068769;28;20023;-71
2023/09/28 01:36:17;;;;;;;3.88;2.70;;;;;;;;;;5070439;28;20037;-70
2023/09/28 01:38:49;;;;;;;4.60;2.63;;;;;;;;;;5068047;28;20028;-70
2023/09/28 01:41:15;;;;;;;4.38;2.55;;;;;;;;;;5068548;28;20063;-71
2023/09/28 01:43:41;;;;;;;4.90;2.63;;;;;;;;;;5070839;28;20029;-71
2023/09/28 01:46:06;;;;;;;6.22;2.22;;;;;;;;;;5067401;28;20514;-71
2023/09/28 01:48:32;;;;;;;3.00;2.15;;;;;;;;;;5066024;28;20113;-71
2023/09/28 01:51:01;;;;;;;3.63;2.45;;;;;;;;;;5069851;28;20513;-71
2023/09/28 01:53:27;;;;;;;4.03;2.75;;;;;;;;;;5066831;28;20454;-70
2023/09/28 01:55:53;;;;;;;5.65;2.70;;;;;;;;;;5069978;28;20565;-70
2023/09/28 01:58:19;;;;;;;4.30;2.60;;;;;;;;;;5066898;28;20108;-71
2023/09/28 02:00:46;;;;;;;5.10;2.67;;;;;;;;;;5067576;28;20078;-71
2023/09/28 02:03:13;;;;;;;5.78;2.83;;;;;;;;;;5070157;28;20110;-71
2023/09/28 02:05:40;;;;;;;3.95;2.50;;;;;;;;;;5071502;28;20389;-71
2023/09/28 02:08:06;;;;;;;5.15;2.83;;;;;;;;;;5070034;28;20021;-71
2023/09/28 02:10:32;;;;;;;4.93;3.10;;;;;;;;;;5071531;28;20032;-70
2023/09/28 02:12:59;;;;;;;4.57;3.00;;;;;;;;;;5071198;28;20028;-71
2023/09/28 02:15:25;;;;;;;3.63;2.80;;;;;;;;;;5066527;28;20029;-69
2023/09/28 02:17:52;;;;;;;5.25;2.90;;;;;;;;;;5084804;28;20047;-70
2023/09/28 02:20:22;;;;;;;4.10;2.67;;;;;;;;;;5071163;28;20024;-70
2023/09/28 02:22:52;;;;;;;6.40;3.17;;;;;;;;;;5068026;28;20029;-71
2023/09/28 02:25:20;;;;;;;11.38;2.90;;;;;;;;;;5066536;28;20021;-69
2023/09/28 02:27:47;;;;;;;6.28;3.25;;;;;;;;;;5069765;28;20440;-71
2023/09/28 02:30:19;;;;;;;4.97;3.10;;;;;;;;;;5071147;28;20025;-72
2023/09/28 02:32:49;;;;;;;7.25;2.90;;;;;;;;;;5071128;28;20028;-71
2023/09/28 02:35:16;;;;;;;3.63;2.63;;;;;;;;;;5066329;28;20474;-71
2023/09/28 02:37:45;;;;;;;4.22;2.90;;;;;;;;;;5068101;28;20017;-71
2023/09/28 02:40:14;;;;;;;3.58;2.80;;;;;;;;;;5071152;28;20131;-70
2023/09/28 02:42:43;;;;;;;6.60;3.75;;;;;;;;;;5070840;28;20470;-71
2023/09/28 02:45:13;;;;;;;4.72;3.20;;;;;;;;;;5070791;28;20017;-71
2023/09/28 02:47:44;;;;;;;6.07;3.15;;;;;;;;;;5079366;28;20036;-70
2023/09/28 02:50:11;;;;;;;5.50;3.17;;;;;;;;;;5064586;28;20505;-71
2023/09/28 02:52:41;;;;;;;4.78;3.20;;;;;;;;;;5074924;28;20420;-71
2023/09/28 02:55:08;;;;;;;3.90;2.90;;;;;;;;;;5069937;28;20025;-71
2023/09/28 02:57:36;;;;;;;4.03;2.67;;;;;;;;;;5070513;28;20025;-70
2023/09/28 03:00:12;;;;;;;5.50;2.70;;;;;;;;;;5073003;28;20051;-71
2023/09/28 03:02:39;;;;;;;4.60;2.72;;;;;;;;;;5073047;28;20036;-71
2023/09/28 03:05:07;;;;;;;6.07;3.55;;;;;;;;;;5077755;28;20024;-70
2023/09/28 03:07:34;;;;;;;4.80;2.92;;;;;;;;;;5074066;28;20029;-70
2023/09/28 03:10:04;;;;;;;6.55;2.95;;;;;;;;;;5066108;28;20029;-71
2023/09/28 03:12:32;;;;;;;6.40;2.75;;;;;;;;;;5062529;28;20370;-72
2023/09/28 03:14:57;;;;;;;4.10;2.75;;;;;;;;;;5068430;28;20028;-70
2023/09/28 03:17:23;;;;;;;4.78;3.00;;;;;;;;;;5063785;28;20036;-70
2023/09/28 03:19:49;;;;;;;4.70;2.90;;;;;;;;;;5060457;28;20442;-71
2023/09/28 03:22:15;;;;;;;5.72;3.00;;;;;;;;;;5060609;28;20453;-71
2023/09/28 03:24:41;;;;;;;8.05;2.95;;;;;;;;;;5069069;28;20088;-70
2023/09/28 03:27:08;;;;;;;6.43;3.30;;;;;;;;;;5076077;28;20024;-72
2023/09/28 03:29:34;;;;;;;5.85;3.20;;;;;;;;;;5078176;28;20544;-70
2023/09/28 03:32:00;;;;;;;3.95;3.00;;;;;;;;;;5071937;28;20040;-70
2023/09/28 03:34:25;;;;;;;14.65;3.67;;;;;;;;;;5062639;28;20017;-72
2023/09/28 03:36:51;;;;;;;5.68;3.80;;;;;;;;;;5058921;28;20065;-71
2023/09/28 03:39:18;;;;;;;8.00;3.58;;;;;;;;;;5071661;28;20028;-72
2023/09/28 03:41:44;;;;;;;5.00;3.05;;;;;;;;;;5069465;28;20051;-70
2023/09/28 03:44:10;;;;;;;6.20;3.40;;;;;;;;;;5073529;28;20013;-70
2023/09/28 03:46:36;;;;;;;8.82;3.33;;;;;;;;;;5044111;28;20064;-69
2023/09/28 03:49:02;;;;;;;5.60;3.20;;;;;;;;;;5065326;28;20021;-69
2023/09/28 03:51:27;;;;;;;5.07;3.33;;;;;;;;;;5065999;28;20033;-70
2023/09/28 03:53:53;;;;;;;12.85;3.90;;;;;;;;;;5065724;28;20497;-69
2023/09/28 03:56:19;;;;;;;8.25;3.65;;;;;;;;;;5063270;28;20039;-68
2023/09/28 03:58:45;;;;;;;12.63;3.72;;;;;;;;;;5066133;28;20016;-70
2023/09/28 04:01:10;;;;;;;6.63;3.28;;;;;;;;;;5070719;28;20076;-70
2023/09/28 04:03:36;;;;;;;8.00;3.25;;;;;;;;;;5063949;28;20108;-70
2023/09/28 04:06:04;;;;;;;8.18;3.70;;;;;;;;;;5064582;28;20079;-70
2023/09/28 04:08:30;;;;;;;10.70;4.28;;;;;;;;;;5062300;28;20031;-71
2023/09/28 04:10:56;;;;;;;10.93;4.00;;;;;;;;;;5062500;28;20037;-70
2023/09/28 04:13:21;;;;;;;8.77;3.78;;;;;;;;;;5060983;28;20020;-69
2023/09/28 04:15:48;;;;;;;10.10;3.72;;;;;;;;;;5062214;28;20043;-69
2023/09/28 04:18:14;;;;;;;9.38;4.15;;;;;;;;;;5058257;28;20032;-70
2023/09/28 04:20:41;;;;;;;8.45;3.80;;;;;;;;;;5057393;28;20033;-70
2023/09/28 04:23:08;;;;;;;11.35;3.75;;;;;;;;;;5059012;28;20048;-70
2023/09/28 04:25:35;;;;;;;16.33;4.05;;;;;;;;;;5085169;28;20081;-69
2023/09/28 04:28:01;;;;;;;11.75;4.15;;;;;;;;;;5078393;28;20036;-71
2023/09/28 04:30:27;;;;;;;15.75;4.43;;;;;;;;;;5057420;28;20036;-71
2023/09/28 04:32:54;;;;;;;12.93;4.63;;;;;;;;;;5064361;28;20036;-69
2023/09/28 04:35:20;;;;;;;16.60;5.20;;;;;;;;;;5067993;28;20101;-70
2023/09/28 04:37:50;;;;;;;11.48;4.07;;;;;;;;;;5068128;28;20062;-70
2023/09/28 04:40:16;;;;;;;11.63;4.57;;;;;;;;;;5090159;28;20066;-71
2023/09/28 04:42:42;;;;;;;10.63;3.63;;;;;;;;;;5072352;28;20017;-71
2023/09/28 04:45:09;;;;;;;8.85;3.55;;;;;;;;;;5071981;28;20071;-70
2023/09/28 04:47:36;;;;;;;8.48;3.58;;;;;;;;;;5071620;28;20028;-70
2023/09/28 04:50:04;;;;;;;13.48;3.90;;;;;;;;;;5071690;28;20044;-70
2023/09/28 04:52:29;;;;;;;11.35;3.60;;;;;;;;;;5068114;28;20031;-70
2023/09/28 04:54:55;;;;;;;11.45;4.05;;;;;;;;;;5067783;28;20394;-70
2023/09/28 04:57:21;;;;;;;16.65;4.18;;;;;;;;;;5070735;28;20124;-70
2023/09/28 04:59:49;;;;;;;10.18;3.13;;;;;;;;;;5071739;28;20049;-71
2023/09/28 05:02:14;;;;;;;9.73;3.20;;;;;;;;;;5071083;28;20482;-70
2023/09/28 05:04:40;;;;;;;11.82;4.00;;;;;;;;;;5070248;28;20043;-70
2023/09/28 05:07:06;;;;;;;9.88;3.30;;;;;;;;;;5071237;28;20054;-71
2023/09/28 05:09:35;;;;;;;6.82;2.95;;;;;;;;;;5070661;28;20041;-70
2023/09/28 05:12:02;;;;;;;13.32;3.42;;;;;;;;;;5070277;28;20031;-70
2023/09/28 05:14:28;;;;;;;7.03;3.10;;;;;;;;;;5069422;28;20036;-71
2023/09/28 05:16:54;;;;;;;12.95;4.03;;;;;;;;;;5071458;28;20449;-72
2023/09/28 05:19:21;;;;;;;13.35;3.25;;;;;;;;;;5071610;28;20043;-72
2023/09/28 05:21:47;;;;;;;22.67;4.70;;;;;;;;;;5070569;28;20113;-71
2023/09/28 05:24:13;;;;;;;24.55;3.78;;;;;;;;;;5069637;28;20028;-71
2023/09/28 05:26:39;;;;;;;23.60;5.43;;;;;;;;;;5069518;28;20095;-71
2023/09/28 05:29:05;;;;;;;20.02;3.40;;;;;;;;;;5070867;28;20028;-71
2023/09/28 05:31:30;;;;;;;18.70;4.93;;;;;;;;;;5070812;28;20032;-72
2023/09/28 05:33:56;;;;;;;28.10;3.38;;;;;;;;;;5083028;28;20434;-70
2023/09/28 05:36:22;;;;;;;5.18;2.58;;;;;;;;;;5076456;28;20036;-71
2023/09/28 05:38:48;;;;;;;7.35;3.50;;;;;;;;;;5071650;28;20048;-71
2023/09/28 05:41:13;;;;;;;4.50;2.60;;;;;;;;;;5068929;28;20028;-72
2023/09/28 05:43:39;;;;;;;11.52;3.33;;;;;;;;;;5067915;28;20210;-70
2023/09/28 05:46:05;;;;;;;14.82;3.45;;;;;;;;;;5069781;28;20078;-71
2023/09/28 05:48:30;;;;;;;12.88;3.42;;;;;;;;;;5070579;28;20399;-71
2023/09/28 05:50:56;;;;;;;16.48;4.18;;;;;;;;;;5070674;28;20174;-71
2023/09/28 05:53:22;;;;;;;7.50;3.20;;;;;;;;;;5070867;28;20065;-71
2023/09/28 05:55:50;;;;;;;32.45;5.50;;;;;;;;;;5070349;28;20119;-71
2023/09/28 05:58:16;;;;;;;12.20;3.05;;;;;;;;;;5069759;28;20012;-70
2023/09/28 06:00:42;;;;;;;6.78;3.10;;;;;;;;;;5070114;28;20485;-70
2023/09/28 06:03:09;;;;;;;13.93;3.85;;;;;;;;;;5070390;28;20112;-72
2023/09/28 06:05:34;;;;;;;22.42;4.95;;;;;;;;;;5070858;28;20059;-70
2023/09/28 06:08:01;;;;;;;18.58;3.83;;;;;;;;;;5069945;28;20394;-71
2023/09/28 06:10:27;;;;;;;9.60;2.97;;;;;;;;;;5070651;28;20553;-72
2023/09/28 06:12:52;;;;;;;15.00;3.00;;;;;;;;;;5069475;28;20036;-70
2023/09/28 06:15:18;;;;;;;11.18;3.58;;;;;;;;;;5071012;28;20371;-71
2023/09/28 06:17:44;;;;;;;14.20;3.70;;;;;;;;;;5071919;28;20039;-69
2023/09/28 06:20:10;;;;;;;17.58;3.78;;;;;;;;;;5071577;28;20028;-70
2023/09/28 06:22:36;;;;;;;9.45;3.20;;;;;;;;;;5071236;28;20033;-72
2023/09/28 06:25:02;;;;;;;17.52;3.22;;;;;;;;;;5074679;28;20043;-71
2023/09/28 06:27:32;;;;;;;10.20;4.22;;;;;;;;;;5074616;28;20068;-72
2023/09/28 06:29:57;;;;;;;33.00;6.60;;;;;;;;;;5075668;28;20255;-72
2023/09/28 06:32:23;;;;;;;15.45;4.80;;;;;;;;;;5075138;28;20552;-71
2023/09/28 06:34:49;;;;;;;16.70;5.97;;;;;;;;;;5073709;28;20390;-73
2023/09/28 06:37:15;;;;;;;12.10;5.10;;;;;;;;;;5074599;28;20030;-73
2023/09/28 06:39:47;;;;;;;13.43;5.15;;;;;;;;;;5072944;28;20127;-72
2023/09/28 06:42:12;;;;;;;13.30;5.80;;;;;;;;;;5074454;28;20060;-71
2023/09/28 06:44:38;;;;;;;16.75;6.00;;;;;;;;;;5074230;28;20044;-73
2023/09/28 06:47:04;;;;;;;13.80;5.38;;;;;;;;;;5066047;28;20103;-73
2023/09/28 06:49:32;;;;;;;18.63;5.13;;;;;;;;;;5074188;28;20040;-73
2023/09/28 06:51:58;;;;;;;22.98;6.57;;;;;;;;;;5073700;28;20056;-73
2023/09/28 06:54:23;;;;;;;16.30;6.43;;;;;;;;;;5073620;28;20063;-72
2023/09/28 06:56:49;;;;;;;16.23;6.20;;;;;;;;;;5073049;28;20119;-74
2023/09/28 06:59:15;;;;;;;15.45;5.50;;;;;;;;;;5072397;28;20451;-72
2023/09/28 07:01:41;;;;;;;14.57;6.20;;;;;;;;;;5073504;28;20107;-74
2023/09/28 07:04:08;;;;;;;15.18;5.30;;;;;;;;;;5072130;28;20608;-71
2023/09/28 07:06:35;;;;;;;13.25;6.00;;;;;;;;;;5073847;28;20057;-72
2023/09/28 07:09:02;;;;;;;22.05;6.38;;;;;;;;;;5073749;28;20048;-72
2023/09/28 07:11:28;;;;;;;16.27;5.20;;;;;;;;;;5073690;28;20024;-71
2023/09/28 07:13:54;;;;;;;12.98;6.22;;;;;;;;;;5073358;28;20107;-73
2023/09/28 07:16:20;;;;;;;10.38;5.07;;;;;;;;;;5073662;28;20100;-73
2023/09/28 07:18:46;;;;;;;16.92;5.45;;;;;;;;;;5073289;28;20157;-72
2023/09/28 07:21:11;;;;;;;10.75;5.30;;;;;;;;;;5073575;28;20039;-72
2023/09/28 07:23:39;;;;;;;20.70;5.60;;;;;;;;;;5073313;28;20103;-72
2023/09/28 07:26:17;;;;;;;16.73;5.05;;;;;;;;;;5088634;28;20551;-73
2023/09/28 07:28:47;;;;;;;8.55;5.05;;;;;;;;;;5073195;28;20035;-71
2023/09/28 07:31:15;;;;;;;16.55;5.80;;;;;;;;;;5072677;28;20370;-73
2023/09/28 07:33:41;;;;;;;9.98;4.95;;;;;;;;;;5071818;28;20052;-74
2023/09/28 07:36:07;;;;;;;10.73;4.82;;;;;;;;;;5072076;28;20048;-72
2023/09/28 07:38:33;;;;;;;18.58;4.88;;;;;;;;;;5073141;28;20046;-72
2023/09/28 07:41:00;;;;;;;10.45;4.47;;;;;;;;;;5072968;28;20044;-72
2023/09/28 07:43:26;;;;;;;8.02;3.92;;;;;;;;;;5072960;28;20023;-73
2023/09/28 07:45:52;;;;;;;11.13;4.68;;;;;;;;;;5072796;28;20112;-73
2023/09/28 07:48:17;;;;;;;9.15;3.90;;;;;;;;;;5072718;28;20462;-71
2023/09/28 07:50:43;;;;;;;7.05;3.60;;;;;;;;;;5072991;28;20202;-71
2023/09/28 07:53:09;;;;;;;12.52;4.75;;;;;;;;;;5072783;28;20430;-72
2023/09/28 07:55:35;;;;;;;12.90;4.20;;;;;;;;;;5071050;28;20033;-71
2023/09/28 07:58:00;;;;;;;15.95;5.35;;;;;;;;;;5072988;28;20024;-72
2023/09/28 08:00:27;;;;;;;13.15;4.60;;;;;;;;;;5072124;28;20029;-72
2023/09/28 08:02:53;;;;;;;11.77;4.22;;;;;;;;;;5073307;28;20028;-71
2023/09/28 08:05:19;;;;;;;10.38;5.05;;;;;;;;;;5073081;28;20033;-71
2023/09/28 08:07:44;;;;;;;9.25;3.80;;;;;;;;;;5072622;28;20042;-72
2023/09/28 08:10:10;;;;;;;18.38;4.47;;;;;;;;;;5071261;28;20096;-70
2023/09/28 08:12:37;;;;;;;10.57;4.18;;;;;;;;;;5072893;28;20512;-72
2023/09/28 08:15:04;;;;;;;12.07;4.72;;;;;;;;;;5085959;28;20071;-73
2023/09/28 08:17:31;;;;;;;14.25;4.60;;;;;;;;;;5092451;28;20515;-70
2023/09/28 08:19:56;;;;;;;11.50;4.25;;;;;;;;;;5083787;28;20203;-72
2023/09/28 08:22:23;;;;;;;16.75;5.28;;;;;;;;;;5072791;28;20107;-72
2023/09/28 08:24:49;;;;;;;12.77;5.47;;;;;;;;;;5072448;28;20048;-73
2023/09/28 08:27:14;;;;;;;16.60;3.97;;;;;;;;;;5055722;28;20029;-73
2023/09/28 08:29:40;;;;;;;9.88;4.93;;;;;;;;;;5052885;28;20116;-73
2023/09/28 08:32:06;;;;;;;9.18;4.40;;;;;;;;;;5075555;28;20382;-72
2023/09/28 08:34:35;;;;;;;10.68;5.15;;;;;;;;;;5091716;28;20108;-73
2023/09/28 08:37:03;;;;;;;9.05;4.40;;;;;;;;;;5091782;28;20031;-73
2023/09/28 08:39:31;;;;;;;8.00;4.07;;;;;;;;;;5081693;28;20116;-73
2023/09/28 08:42:04;;;;;;;8.93;3.90;;;;;;;;;;5078383;28;20036;-72
2023/09/28 08:44:33;;;;;;;;;;;;;;;;;;5092218;28;20039;-71
2023/09/28 08:47:00;;;;;;;14.77;4.90;;;;;;;;;;5090815;28;20510;-72
2023/09/28 08:49:27;;;;;;;9.35;4.30;;;;;;;;;;5091208;28;20046;-71
2023/09/28 08:51:57;;;;;;;9.38;3.72;;;;;;;;;;5091781;28;20073;-73
2023/09/28 08:54:24;;;;;;;14.52;4.13;;;;;;;;;;5091500;28;20553;-72
2023/09/28 08:56:52;;;;;;;6.80;3.47;;;;;;;;;;5091452;28;20038;-72
2023/09/28 08:59:19;;;;;;;6.72;3.30;;;;;;;;;;5086076;28;20070;-71
2023/09/28 09:01:46;;;;;;;11.07;4.00;;;;;;;;;;5086051;28;20028;-71
2023/09/28 09:04:12;;;;;;;9.00;3.10;;;;;;;;;;5070119;28;20054;-72
2023/09/28 09:06:41;;;;;;;5.55;3.08;;;;;;;;;;5071294;28;20025;-73
2023/09/28 09:09:15;;;;;;;8.43;3.08;;;;;;;;;;5070090;28;20115;-72
2023/09/28 09:11:52;;;;;;;12.90;3.92;;;;;;;;;;5070717;28;20038;-72
2023/09/28 09:14:28;;;;;;;19.02;4.22;;;;;;;;;;5070874;28;20028;-72
2023/09/28 09:16:53;;;;;;;9.82;3.60;;;;;;;;;;5071025;28;20141;-71
2023/09/28 09:19:19;;;;;;;8.50;3.70;;;;;;;;;;5068777;28;20474;-72
2023/09/28 09:21:45;;;;;;;12.68;3.85;;;;;;;;;;5071165;28;20060;-72
2023/09/28 09:24:14;;;;;;;8.73;3.15;;;;;;;;;;5059163;28;20649;-73
2023/09/28 09:26:42;;;;;;;10.27;3.80;;;;;;;;;;5066092;28;20402;-72
2023/09/28 09:29:12;;;;;;;15.38;3.15;;;;;;;;;;5069842;28;20020;-72
2023/09/28 09:31:43;;;;;;;5.93;3.33;;;;;;;;;;5071004;28;20040;-72
2023/09/28 09:34:13;;;;;;;12.77;4.70;;;;;;;;;;5070319;28;20422;-73
2023/09/28 09:36:43;;;;;;;14.38;4.57;;;;;;;;;;5070295;28;20039;-73
2023/09/28 09:39:21;;;;;;;9.82;3.92;;;;;;;;;;5069455;28;20415;-72
2023/09/28 09:41:49;;;;;;;10.25;4.65;;;;;;;;;;5070034;28;20156;-71
2023/09/28 09:44:18;;;;;;;9.73;4.07;;;;;;;;;;5070541;28;20048;-72
2023/09/28 09:46:49;;;;;;;9.52;4.03;;;;;;;;;;5070579;28;20040;-72
2023/09/28 09:49:18;;;;;;;12.40;4.28;;;;;;;;;;5070056;28;20536;-72
2023/09/28 09:51:45;;;;;;;11.45;3.55;;;;;;;;;;5068264;28;20069;-73
2023/09/28 09:54:20;;;;;;;8.35;4.05;;;;;;;;;;5069101;28;20353;-71
2023/09/28 09:56:51;;;;;;;8.00;3.50;;;;;;;;;;5068998;28;20054;-72
2023/09/28 09:59:18;;;;;;;7.97;3.65;;;;;;;;;;5069635;28;20032;-72
2023/09/28 10:01:48;;;;;;;12.15;3.78;;;;;;;;;;5070952;28;20478;-72
2023/09/28 10:04:16;;;;;;;7.95;4.20;;;;;;;;;;5070257;28;20128;-73
2023/09/28 10:06:51;;;;;;;9.60;3.63;;;;;;;;;;5071297;28;20058;-72
2023/09/28 10:09:18;;;;;;;9.95;3.83;;;;;;;;;;5071152;28;20451;-71
2023/09/28 10:11:49;;;;;;;7.63;3.38;;;;;;;;;;5069413;28;20056;-72
2023/09/28 10:14:16;;;;;;;13.32;3.75;;;;;;;;;;5069492;28;20036;-72
2023/09/28 10:16:43;;;;;;;12.38;5.78;;;;;;;;;;5069170;28;20470;-72
2023/09/28 10:19:10;;;;;;;16.10;4.32;;;;;;;;;;5071296;28;20029;-72
2023/09/28 10:21:38;;;;;;;12.80;3.17;;;;;;;;;;5071096;28;20031;-72
2023/09/28 10:24:11;;;;;;;10.45;3.30;;;;;;;;;;5070993;28;20155;-73
2023/09/28 10:26:38;;;;;;;5.05;2.80;;;;;;;;;;5070272;28;20079;-72
2023/09/28 10:29:09;;;;;;;6.13;2.95;;;;;;;;;;5069903;28;20055;-72
2023/09/28 10:31:39;;;;;;;10.02;3.38;;;;;;;;;;5071096;28;20037;-71
2023/09/28 10:34:06;;;;;;;12.18;3.28;;;;;;;;;;5070325;28;20040;-72
2023/09/28 10:36:35;;;;;;;16.05;5.20;;;;;;;;;;5070548;28;20116;-72
2023/09/28 10:39:14;;;;;;;11.68;3.70;;;;;;;;;;5070878;28;20040;-72
2023/09/28 10:41:51;;;;;;;14.95;4.00;;;;;;;;;;5070732;28;20075;-72
2023/09/28 10:44:21;;;;;;;13.05;4.32;;;;;;;;;;5070590;28;20571;-72
2023/09/28 10:46:49;;;;;;;6.18;3.08;;;;;;;;;;5070724;28;20067;-72
2023/09/28 10:49:26;;;;;;;9.65;3.20;;;;;;;;;;5070258;28;20426;-72
2023/09/28 10:51:53;;;;;;;14.90;3.50;;;;;;;;;;5070534;28;20478;-71
2023/09/28 10:54:20;;;;;;;6.72;3.35;;;;;;;;;;5070282;28;20025;-72
2023/09/28 10:56:49;;;;;;;9.60;3.08;;;;;;;;;;5070438;28;20509;-72
2023/09/28 10:59:18;;;;;;;7.10;3.15;;;;;;;;;;5070415;28;20024;-73
2023/09/28 11:01:48;;;;;;;10.43;3.95;;;;;;;;;;5070360;28;20036;-72
2023/09/28 11:04:16;;;;;;;10.50;3.33;;;;;;;;;;5070546;28;20046;-72
2023/09/28 11:06:43;;;;;;;12.35;3.95;;;;;;;;;;5069982;28;20024;-72
2023/09/28 11:09:12;;;;;;;7.22;3.25;;;;;;;;;;5070162;28;20068;-72
2023/09/28 11:11:38;;;;;;;13.30;3.33;;;;;;;;;;5073659;28;20023;-73
2023/09/28 11:14:07;;;;;;;13.05;3.67;;;;;;;;;;5074165;28;20062;-73
2023/09/28 11:16:38;;;;;;;8.70;3.25;;;;;;;;;;5074283;28;20028;-73
2023/09/28 11:19:05;;;;;;;6.80;3.53;;;;;;;;;;5074107;28;20040;-72
2023/09/28 11:21:31;;;;;;;7.78;3.20;;;;;;;;;;5073881;28;20025;-74
2023/09/28 11:23:58;;;;;;;12.77;3.05;;;;;;;;;;5073780;28;20111;-72
2023/09/28 11:26:24;;;;;;;12.20;4.43;;;;;;;;;;5073983;28;20463;-72
2023/09/28 11:28:51;;;;;;;15.80;4.82;;;;;;;;;;5074525;28;20444;-73
2023/09/28 11:31:18;;;;;;;12.25;3.78;;;;;;;;;;5073792;28;20024;-72
2023/09/28 11:33:46;;;;;;;18.80;5.93;;;;;;;;;;5073083;28;20021;-73
2023/09/28 11:36:21;;;;;;;10.80;3.97;;;;;;;;;;5073721;28;20516;-73
2023/09/28 11:38:48;;;;;;;9.90;3.17;;;;;;;;;;5074085;28;20029;-72
2023/09/28 11:41:15;;;;;;;12.25;3.45;;;;;;;;;;5074172;28;20031;-73
2023/09/28 11:43:50;;;;;;;7.93;2.67;;;;;;;;;;5072103;28;20032;-73
2023/09/28 11:46:22;;;;;;;15.38;4.35;;;;;;;;;;5073124;28;20035;-71
2023/09/28 11:49:11;;;;;;;8.02;3.22;;;;;;;;;;5073309;28;20116;-72
2023/09/28 11:51:38;;;;;;;7.75;2.83;;;;;;;;;;5073547;28;20047;-71
2023/09/28 11:54:15;;;;;;;16.17;3.75;;;;;;;;;;5073885;28;20021;-72
2023/09/28 11:56:44;;;;;;;12.80;3.33;;;;;;;;;;5073236;28;20035;-72
2023/09/28 11:59:15;;;;;;;6.97;2.92;;;;;;;;;;5072104;28;20037;-72
2023/09/28 12:01:42;;;;;;;12.13;3.40;;;;;;;;;;5072858;28;20044;-72
2023/09/28 12:04:09;;;;;;;9.75;3.72;;;;;;;;;;5087695;28;20027;-71
2023/09/28 12:06:37;;;;;;;13.93;3.65;;;;;;;;;;5093727;28;20048;-72
2023/09/28 12:09:06;;;;;;;6.22;3.10;;;;;;;;;;5091620;28;20469;-73
2023/09/28 12:11:37;;;;;;;9.60;3.25;;;;;;;;;;5092745;28;20043;-72
2023/09/28 12:14:03;;;;;;;8.43;3.25;;;;;;;;;;5093180;28;20043;-72
2023/09/28 12:16:29;;;;;;;8.68;2.90;;;;;;;;;;5093210;28;20024;-71
2023/09/28 12:18:56;;;;;;;5.30;2.78;;;;;;;;;;5093210;28;20035;-72
2023/09/28 12:21:21;;;;;;;9.80;3.40;;;;;;;;;;5093129;28;20176;-72
2023/09/28 12:23:47;;;;;;;7.85;2.88;;;;;;;;;;5092667;28;20036;-71
2023/09/28 12:26:13;;;;;;;8.57;2.90;;;;;;;;;;5092561;28;20031;-72
2023/09/28 12:28:42;;;;;;;13.90;2.90;;;;;;;;;;5092809;28;20391;-72
2023/09/28 12:31:08;;;;;;;6.10;2.80;;;;;;;;;;5091425;28;20394;-73
2023/09/28 12:33:37;;;;;;;8.65;2.88;;;;;;;;;;5092578;28;20073;-72
2023/09/28 12:36:03;;;;;;;5.65;3.00;;;;;;;;;;5090946;28;20477;-72
2023/09/28 12:38:29;;;;;;;10.40;3.47;;;;;;;;;;5092568;28;20633;-72
2023/09/28 12:40:55;;;;;;;10.48;3.83;;;;;;;;;;5092705;28;20048;-71
2023/09/28 12:43:21;;;;;;;10.13;2.92;;;;;;;;;;5092268;28;20036;-72
2023/09/28 12:45:47;;;;;;;5.60;2.65;;;;;;;;;;5084083;28;20017;-72
2023/09/28 12:48:17;;;;;;;10.10;2.88;;;;;;;;;;5071533;28;20041;-72
2023/09/28 12:50:44;;;;;;;5.80;2.78;;;;;;;;;;5072552;28;20046;-71
2023/09/28 12:53:10;;;;;;;9.27;3.75;;;;;;;;;;5071826;28;20020;-73
2023/09/28 12:55:36;;;;;;;14.57;4.00;;;;;;;;;;5071563;28;20578;-72
2023/09/28 12:58:03;;;;;;;12.45;4.20;;;;;;;;;;5076578;28;20107;-73
2023/09/28 13:00:29;;;;;;;11.02;3.50;;;;;;;;;;5092511;28;20060;-72
2023/09/28 13:02:55;;;;;;;8.35;3.33;;;;;;;;;;5077047;28;20450;-72
2023/09/28 13:05:25;;;;;;;7.18;3.58;;;;;;;;;;5071749;28;20391;-72
2023/09/28 13:07:52;;;;;;;10.77;3.78;;;;;;;;;;5072039;28;20418;-74
2023/09/28 13:10:27;;;;;;;7.78;3.40;;;;;;;;;;5071765;28;20146;-72
2023/09/28 13:12:53;;;;;;;7.40;3.42;;;;;;;;;;5071788;28;20093;-73
2023/09/28 13:15:22;;;;;;;10.95;3.33;;;;;;;;;;5070965;28;20494;-71
2023/09/28 13:17:48;;;;;;;7.47;2.92;;;;;;;;;;5080979;28;20032;-71
2023/09/28 13:20:25;;;;;;;7.45;3.38;;;;;;;;;;5071597;28;20031;-73
2023/09/28 13:22:54;;;;;;;14.40;4.43;;;;;;;;;;5071798;28;20431;-72
2023/09/28 13:25:23;;;;;;;11.55;3.55;;;;;;;;;;5071565;28;20028;-72
2023/09/28 13:27:52;;;;;;;5.70;2.75;;;;;;;;;;5070852;28;20209;-73
2023/09/28 13:30:22;;;;;;;7.40;2.78;;;;;;;;;;5051308;28;20052;-71
2023/09/28 13:32:51;;;;;;;10.38;3.60;;;;;;;;;;5050395;28;20041;-72
2023/09/28 13:35:17;;;;;;;6.68;3.40;;;;;;;;;;5050706;28;20044;-72
2023/09/28 13:37:44;;;;;;;4.25;2.60;;;;;;;;;;5051109;28;20033;-72
2023/09/28 13:40:20;;;;;;;6.88;3.25;;;;;;;;;;5066040;28;20031;-71
2023/09/28 13:42:46;;;;;;;11.50;2.95;;;;;;;;;;5051023;28;20445;-71
2023/09/28 13:45:13;;;;;;;7.22;3.25;;;;;;;;;;5066232;28;20031;-70
2023/09/28 13:47:40;;;;;;;13.10;3.50;;;;;;;;;;5069685;28;20033;-71
2023/09/28 13:50:10;;;;;;;11.48;3.13;;;;;;;;;;5069027;28;20500;-71
2023/09/28 13:52:39;;;;;;;9.85;3.25;;;;;;;;;;5068677;28;20500;-70
2023/09/28 13:55:06;;;;;;;9.05;3.05;;;;;;;;;;5068887;28;20035;-72
2023/09/28 13:57:33;;;;;;;12.93;3.80;;;;;;;;;;5069974;28;20497;-72
2023/09/28 14:00:00;;;;;;;8.07;3.25;;;;;;;;;;5073724;28;20056;-72
2023/09/28 14:02:27;;;;;;;11.07;3.58;;;;;;;;;;5068703;28;20501;-71
2023/09/28 14:04:53;;;;;;;11.18;3.03;;;;;;;;;;5070336;28;20109;-72
2023/09/28 14:07:20;;;;;;;12.32;4.20;;;;;;;;;;5070665;28;20133;-72
2023/09/28 14:09:46;;;;;;;10.70;3.50;;;;;;;;;;5070978;28;20445;-72
2023/09/28 14:12:13;;;;;;;13.85;3.58;;;;;;;;;;5054552;28;20037;-73
2023/09/28 14:14:40;;;;;;;5.53;2.83;;;;;;;;;;5049084;28;20025;-71
2023/09/28 14:17:06;;;;;;;8.95;3.47;;;;;;;;;;5050810;28;20037;-73
2023/09/28 14:19:33;;;;;;;7.05;2.90;;;;;;;;;;5050349;28;20475;-71
2023/09/28 14:22:00;;;;;;;7.47;3.10;;;;;;;;;;5050680;28;20033;-70
2023/09/28 14:24:28;;;;;;;10.85;3.05;;;;;;;;;;5050567;28;20028;-70
2023/09/28 14:26:55;;;;;;;6.53;2.83;;;;;;;;;;5065423;28;20029;-72
2023/09/28 14:29:21;;;;;;;7.53;3.00;;;;;;;;;;5050576;28;20025;-70
2023/09/28 14:31:47;;;;;;;5.70;2.75;;;;;;;;;;5050414;28;20037;-71
2023/09/28 14:34:13;;;;;;;5.00;3.05;;;;;;;;;;5050447;28;20066;-71
2023/09/28 14:36:39;;;;;;;7.90;3.40;;;;;;;;;;5048167;28;20102;-71
2023/09/28 14:39:05;;;;;;;7.38;2.67;;;;;;;;;;5049753;28;20025;-71
2023/09/28 14:41:32;;;;;;;10.43;2.88;;;;;;;;;;5050308;28;20032;-73